Coastal Inspiration — CFN4970 — position and weather

sailwx.info

Track history (hours):
 
Tides and Currents Weather Stations Pressure Air Temp Water Temp Dewpoint Dewpoint Depression Visibility Wind Speed Wind Dir Waves Ship Positions

Coastal Inspiration

Last reported at 2015-Jul-03 02:33 UTC. Time now 2015-Jul-03 02:41 UTC.
Position N 49°10' W 123°37'.

Length 160 m; draft 6 m.

Type: Passenger vessel. MMSI: 316011408.

Date/timePositionNaut miles runAvg speedWind from/ knotsBaromVisibWave heightAir tempDewpointWater temp
2015-Jul-03 02:33N 49°10' W 123°37'1616.0
2015-Jul-03 01:33N 49°01' W 123°17'6 6.0
2015-Jul-03 00:34N 49°00' W 123°08'1615.6
2015-Jul-02 23:33N 49°06' W 123°30'1615.7
2015-Jul-02 22:33N 49°10' W 123°53'5 5.2
2015-Jul-02 21:33N 49°13' W 123°47'1918.8
2015-Jul-02 20:33N 49°05' W 123°21'10 9.8
2015-Jul-02 19:34N 49°00' W 123°08'1716.8
2015-Jul-02 18:33N 49°07' W 123°32'1514.6
2015-Jul-02 17:34N 49°10' W 123°53'4 4.0
2015-Jul-02 16:33N 49°13' W 123°50'1817.6
2015-Jul-02 15:33N 49°06' W 123°25'1312.5
2015-Jul-02 14:34N 49°00' W 123°08'1111.5
2015-Jul-02 13:33N 49°03' W 123°25'1918.8
2015-Jul-02 12:34N 49°13' W 123°49'4 4.2
2015-Jul-02 11:33N 49°10' W 123°53'0 0.0
2015-Jul-02 10:17N 49°10' W 123°53'0 0.0
2015-Jul-02 09:13N 49°10' W 123°53'0 0.0
2015-Jul-02 08:31N 49°10' W 123°53'1 1.5
2015-Jul-02 07:33N 49°11' W 123°53'1716.8
2015-Jul-02 06:33N 49°07' W 123°28'1515.0
2015-Jul-02 05:34N 49°00' W 123°08'1211.9
2015-Jul-02 04:33N 49°03' W 123°25'1919.1
2015-Jul-02 03:33N 49°13' W 123°50'1 0.9
2015-Jul-02 02:33N 49°13' W 123°51'1818.2
2015-Jul-02 01:33N 49°06' W 123°25'1312.8
2015-Jul-02 00:33N 49°00' W 123°08'1212.3
2015-Jul-01 23:33N 49°04' W 123°26'1919.0
2015-Jul-01 22:33N 49°13' W 123°51'1 1.2
2015-Jul-01 21:33N 49°12' W 123°53'1918.7
2015-Jul-01 20:33N 49°06' W 123°26'1313.2
2015-Jul-01 19:33N 49°00' W 123°08'1312.5
2015-Jul-01 18:33N 49°03' W 123°26'1919.3
2015-Jul-01 17:33N 49°12' W 123°53'5 4.5
2015-Jul-01 16:33N 49°13' W 123°46'1918.7
2015-Jul-01 15:33N 49°04' W 123°21'9 9.3
2015-Jul-01 14:33N 49°00' W 123°08'1111.2
2015-Jul-01 13:34N 49°03' W 123°24'1918.9
2015-Jul-01 12:33N 49°13' W 123°49'4 4.2
2015-Jul-01 11:31N 49°10' W 123°53'0 0.0
2015-Jul-01 10:31N 49°10' W 123°53'0 0.0
2015-Jul-01 09:30N 49°10' W 123°53'0 0.0
2015-Jul-01 08:30N 49°10' W 123°53'2 2.1
2015-Jul-01 07:34N 49°12' W 123°53'1817.7
2015-Jul-01 06:34N 49°06' W 123°27'1414.1
2015-Jul-01 05:34N 49°00' W 123°08'10 9.8
2015-Jul-01 04:33N 49°02' W 123°23'2221.7
2015-Jul-01 03:33N 49°13' W 123°51'0 0.3
2015-Jul-01 02:33N 49°13' W 123°51'1919.0
2015-Jul-01 01:33N 49°06' W 123°24'1212.1
2015-Jul-01 00:33N 49°00' W 123°08'1212.2
2015-Jun-30 23:33N 49°04' W 123°26'1919.2
2015-Jun-30 22:33N 49°13' W 123°52'1 1.1
2015-Jun-30 21:33N 49°12' W 123°53'1919.3
2015-Jun-30 20:34N 49°07' W 123°25'1312.6
2015-Jun-30 19:33N 49°00' W 123°08'1111.5
2015-Jun-30 18:33N 49°03' W 123°25'1918.7
2015-Jun-30 17:33N 49°13' W 123°49'3 2.6
2015-Jun-30 16:33N 49°12' W 123°53'1818.1
2015-Jun-30 15:33N 49°07' W 123°27'1413.9
2015-Jun-30 14:33N 49°00' W 123°08'1111.3
2015-Jun-30 13:33N 49°03' W 123°25'1918.8
2015-Jun-30 12:33N 49°13' W 123°50'4 4.0
2015-Jun-30 11:33N 49°10' W 123°53'0 0.0
2015-Jun-30 10:21N 49°10' W 123°53'0 0.0
2015-Jun-30 09:29N 49°10' W 123°53'0 0.0
2015-Jun-30 08:23N 49°10' W 123°53'0 0.1
2015-Jun-30 07:33N 49°10' W 123°53'1716.6
2015-Jun-30 06:33N 49°07' W 123°29'1515.0
2015-Jun-30 05:33N 49°00' W 123°08'1110.8
2015-Jun-30 04:33N 49°03' W 123°24'2020.3
2015-Jun-30 03:33N 49°12' W 123°51'1 1.3
2015-Jun-30 02:33N 49°13' W 123°50'2020.1
2015-Jun-30 01:34N 49°05' W 123°22'1010.0
2015-Jun-30 00:33N 49°00' W 123°08'1515.0
2015-Jun-29 23:33N 49°05' W 123°30'1616.2
2015-Jun-29 22:33N 49°10' W 123°53'5 4.7
2015-Jun-29 21:33N 49°13' W 123°48'2019.7
2015-Jun-29 20:33N 49°04' W 123°22'10 9.8
2015-Jun-29 19:33N 49°00' W 123°08'1313.4
2015-Jun-29 18:33N 49°05' W 123°27'1818.4
2015-Jun-29 17:33N 49°12' W 123°53'3 2.7
2015-Jun-29 16:33N 49°13' W 123°50'2019.9
2015-Jun-29 15:33N 49°05' W 123°23'1110.5
2015-Jun-29 14:33N 49°00' W 123°08'1110.8
2015-Jun-29 13:34N 49°03' W 123°24'1919.4
2015-Jun-29 12:33N 49°13' W 123°49'3 0.7
2015-Jun-29 07:32N 49°11' W 123°53'1818.2
2015-Jun-29 06:33N 49°07' W 123°27'1413.9
2015-Jun-29 05:34N 49°00' W 123°08'1413.9
2015-Jun-29 04:34N 49°05' W 123°28'15 7.3
2015-Jun-29 02:33N 49°13' W 123°47'1919.1
2015-Jun-29 01:33N 49°04' W 123°21'9 9.2
2015-Jun-29 00:33N 49°00' W 123°08'1414.2
2015-Jun-28 23:33N 49°05' W 123°28'17 8.4
2015-Jun-28 21:33N 49°13' W 123°51'2019.7
2015-Jun-28 20:33N 49°05' W 123°23'1111.3
2015-Jun-28 19:33N 49°00' W 123°08'1211.9
2015-Jun-28 18:34N 49°04' W 123°25'1918.6
2015-Jun-28 17:33N 49°13' W 123°50'1 1.0
2015-Jun-28 16:33N 49°13' W 123°52'1818.4
2015-Jun-28 15:33N 49°06' W 123°26'1312.9
2015-Jun-28 14:34N 49°00' W 123°08'1212.3
2015-Jun-28 13:33N 49°04' W 123°26'1818.1
2015-Jun-28 12:33N 49°13' W 123°50'3 0.7
2015-Jun-28 07:32N 49°10' W 123°53'1616.6
2015-Jun-28 06:33N 49°07' W 123°29'1515.3
2015-Jun-28 05:33N 49°00' W 123°08'1110.7
2015-Jun-28 04:34N 49°03' W 123°24'1918.6
2015-Jun-28 03:33N 49°13' W 123°48'3 3.4
2015-Jun-28 02:33N 49°12' W 123°53'1818.1
2015-Jun-28 01:33N 49°06' W 123°27'1413.7
2015-Jun-28 00:33N 49°00' W 123°08'1211.5
2015-Jun-27 23:33N 49°03' W 123°25'2020.2
2015-Jun-27 22:33N 49°12' W 123°53'3 3.4
2015-Jun-27 21:33N 49°13' W 123°48'1919.5
2015-Jun-27 20:33N 49°04' W 123°21'10 9.8
2015-Jun-27 19:34N 49°00' W 123°08'1211.9
2015-Jun-27 18:33N 49°04' W 123°25'1918.5
2015-Jun-27 17:33N 49°13' W 123°50'1 0.7
2015-Jun-27 16:33N 49°13' W 123°51'1918.9
2015-Jun-27 15:34N 49°05' W 123°25'1212.0
2015-Jun-27 14:33N 49°00' W 123°08'1211.6
2015-Jun-27 13:33N 49°03' W 123°25'1818.4
2015-Jun-27 12:33N 49°13' W 123°49'4 4.1
2015-Jun-27 11:31N 49°10' W 123°53'0 0.0
2015-Jun-27 10:33N 49°10' W 123°53'0 0.0
2015-Jun-27 09:29N 49°10' W 123°53'0 0.0
2015-Jun-27 08:29N 49°10' W 123°53'2 2.5
2015-Jun-27 07:33N 49°12' W 123°53'1919.2
2015-Jun-27 06:33N 49°06' W 123°25'1312.6
2015-Jun-27 05:34N 49°00' W 123°08'1514.5
2015-Jun-27 04:33N 49°06' W 123°29'1716.8
2015-Jun-27 03:33N 49°10' W 123°53'6 5.5
2015-Jun-27 02:33N 49°13' W 123°46'2020.0
2015-Jun-27 01:33N 49°03' W 123°19'8 7.9
2015-Jun-27 00:33N 49°00' W 123°08'1616.4
2015-Jun-26 23:33N 49°07' W 123°31'1515.0
2015-Jun-26 22:33N 49°10' W 123°53'6 5.8
2015-Jun-26 21:33N 49°13' W 123°46'1918.8
2015-Jun-26 20:33N 49°04' W 123°21'9 9.1
2015-Jun-26 19:33N 49°00' W 123°08'1312.8
2015-Jun-26 18:34N 49°04' W 123°26'1818.2
2015-Jun-26 17:34N 49°12' W 123°51'0 0.2
2015-Jun-26 16:33N 49°13' W 123°52'1818.2
2015-Jun-26 15:34N 49°06' W 123°26'1312.9
2015-Jun-26 14:33N 49°00' W 123°08'1211.6
2015-Jun-26 13:33N 49°03' W 123°25'1918.7
2015-Jun-26 12:33N 49°13' W 123°50'4 3.7
2015-Jun-26 11:27N 49°10' W 123°53'0 0.0
2015-Jun-26 10:33N 49°10' W 123°53'0 0.0
2015-Jun-26 09:33N 49°10' W 123°53'0 0.0
2015-Jun-26 08:32N 49°10' W 123°53'6 6.4
2015-Jun-26 07:33N 49°12' W 123°45'2019.9
2015-Jun-26 06:34N 49°03' W 123°18'7 7.1
2015-Jun-26 05:34N 49°00' W 123°08'1616.1
2015-Jun-26 04:33N 49°07' W 123°31'1515.2
2015-Jun-26 03:33N 49°10' W 123°53'7 6.9
2015-Jun-26 02:33N 49°12' W 123°44'2020.4
2015-Jun-26 01:33N 49°02' W 123°17'6 5.6
2015-Jun-26 00:34N 49°00' W 123°09'1919.3
2015-Jun-25 23:33N 49°09' W 123°36'1211.8
2015-Jun-25 22:33N 49°10' W 123°53'2 2.4
2015-Jun-25 21:34N 49°12' W 123°53'1918.8
2015-Jun-25 20:33N 49°06' W 123°26'1313.0
2015-Jun-25 19:33N 49°00' W 123°08'1211.7
2015-Jun-25 18:33N 49°04' W 123°25'1918.7
2015-Jun-25 17:34N 49°13' W 123°50'3 3.0
2015-Jun-25 16:33N 49°12' W 123°53'1918.8
2015-Jun-25 15:33N 49°06' W 123°26'1312.9
2015-Jun-25 14:34N 49°00' W 123°08'1111.3
2015-Jun-25 13:33N 49°03' W 123°25'1818.5
2015-Jun-25 12:33N 49°13' W 123°49'4 4.5
2015-Jun-25 11:33N 49°10' W 123°53'0 0.0
2015-Jun-25 10:33N 49°10' W 123°53'0 0.0
2015-Jun-25 09:33N 49°10' W 123°53'0 0.0
2015-Jun-25 08:33N 49°10' W 123°53'2 1.5
2015-Jun-25 07:33N 49°11' W 123°53'1918.7
2015-Jun-25 06:33N 49°06' W 123°26'1313.1
2015-Jun-25 05:33N 49°00' W 123°08'1111.3
2015-Jun-25 04:33N 49°04' W 123°24'1919.5
2015-Jun-25 03:33N 49°13' W 123°51'1 1.2
2015-Jun-25 02:33N 49°12' W 123°53'2019.6
2015-Jun-25 01:33N 49°06' W 123°25'1212.2
2015-Jun-25 00:33N 49°00' W 123°08'1211.8
2015-Jun-24 23:34N 49°04' W 123°25'1919.0
2015-Jun-24 22:33N 49°13' W 123°51'2 1.9
2015-Jun-24 21:33N 49°12' W 123°53'1817.9
2015-Jun-24 20:33N 49°06' W 123°27'1413.9
2015-Jun-24 19:33N 49°00' W 123°08'1110.8
2015-Jun-24 18:34N 49°03' W 123°24'1919.3
2015-Jun-24 17:33N 49°13' W 123°49'3 2.9
2015-Jun-24 16:34N 49°12' W 123°53'1818.4
2015-Jun-24 15:34N 49°06' W 123°26'1413.5
2015-Jun-24 14:33N 49°00' W 123°08'1211.9
2015-Jun-24 13:33N 49°03' W 123°25'1817.9
2015-Jun-24 12:33N 49°13' W 123°49'4 4.2
2015-Jun-24 11:29N 49°10' W 123°53'0 0.0
2015-Jun-24 10:33N 49°10' W 123°53'0 0.0
2015-Jun-24 09:33N 49°10' W 123°53'0 0.0
2015-Jun-24 08:33N 49°10' W 123°53'0 0.3
2015-Jun-24 07:33N 49°10' W 123°53'1716.8
2015-Jun-24 06:33N 49°07' W 123°28'1514.8
2015-Jun-24 05:33N 49°00' W 123°08'1312.9
2015-Jun-24 04:34N 49°04' W 123°27'1620.2
2015-Jun-24 03:47N 49°12' W 123°47'418.5
2015-Jun-24 03:34N 49°12' W 123°53'0 0.4
2015-Jun-24 02:34N 49°12' W 123°53'818.5
2015-Jun-24 02:07N 49°12' W 123°41'1119.2
2015-Jun-24 01:33N 49°06' W 123°26'126.7
2015-Jun-24 01:31N 49°06' W 123°25'1212.9
2015-Jun-24 00:33N 49°00' W 123°08'0 0.0
2015-Jun-24 00:30N 49°00' W 123°08'1112.1
2015-Jun-23 23:33N 49°03' W 123°25'1919.1
2015-Jun-23 22:33N 49°13' W 123°50'2 1.8
2015-Jun-23 21:34N 49°12' W 123°53'1818.5
2015-Jun-23 20:33N 49°06' W 123°26'1313.2
2015-Jun-23 19:34N 49°00' W 123°08'3 6.7
2015-Jun-23 19:06N 49°00' W 123°13'  
Track history (hours):
 
Tides and Currents Weather Stations Pressure Air Temp Water Temp Dewpoint Dewpoint Depression Visibility Wind Speed Wind Dir Waves Ship Positions

Coastal Inspiration

Last reported at 2015-Jul-03 02:33 UTC. Time now 2015-Jul-03 02:41 UTC.
Position N 49°10' W 123°37'.

Length 160 m; draft 6 m.

Type: Passenger vessel. MMSI: 316011408.

Date/timePositionNaut miles runAvg speedWind from/ knotsBaromVisibWave heightAir tempDewpointWater temp
2015-Jul-03 02:33N 49°10' W 123°37'1616.0
2015-Jul-03 01:33N 49°01' W 123°17'6 6.0
2015-Jul-03 00:34N 49°00' W 123°08'1615.6
2015-Jul-02 23:33N 49°06' W 123°30'1615.7
2015-Jul-02 22:33N 49°10' W 123°53'5 5.2
2015-Jul-02 21:33N 49°13' W 123°47'1918.8
2015-Jul-02 20:33N 49°05' W 123°21'10 9.8
2015-Jul-02 19:34N 49°00' W 123°08'1716.8
2015-Jul-02 18:33N 49°07' W 123°32'1514.6
2015-Jul-02 17:34N 49°10' W 123°53'4 4.0
2015-Jul-02 16:33N 49°13' W 123°50'1817.6
2015-Jul-02 15:33N 49°06' W 123°25'1312.5
2015-Jul-02 14:34N 49°00' W 123°08'1111.5
2015-Jul-02 13:33N 49°03' W 123°25'1918.8
2015-Jul-02 12:34N 49°13' W 123°49'4 4.2
2015-Jul-02 11:33N 49°10' W 123°53'0 0.0
2015-Jul-02 10:17N 49°10' W 123°53'0 0.0
2015-Jul-02 09:13N 49°10' W 123°53'0 0.0
2015-Jul-02 08:31N 49°10' W 123°53'1 1.5
2015-Jul-02 07:33N 49°11' W 123°53'1716.8
2015-Jul-02 06:33N 49°07' W 123°28'1515.0
2015-Jul-02 05:34N 49°00' W 123°08'1211.9
2015-Jul-02 04:33N 49°03' W 123°25'1919.1
2015-Jul-02 03:33N 49°13' W 123°50'1 0.9
2015-Jul-02 02:33N 49°13' W 123°51'1818.2
2015-Jul-02 01:33N 49°06' W 123°25'1312.8
2015-Jul-02 00:33N 49°00' W 123°08'1212.3
2015-Jul-01 23:33N 49°04' W 123°26'1919.0
2015-Jul-01 22:33N 49°13' W 123°51'1 1.2
2015-Jul-01 21:33N 49°12' W 123°53'1918.7
2015-Jul-01 20:33N 49°06' W 123°26'1313.2
2015-Jul-01 19:33N 49°00' W 123°08'1312.5
2015-Jul-01 18:33N 49°03' W 123°26'1919.3
2015-Jul-01 17:33N 49°12' W 123°53'5 4.5
2015-Jul-01 16:33N 49°13' W 123°46'1918.7
2015-Jul-01 15:33N 49°04' W 123°21'9 9.3
2015-Jul-01 14:33N 49°00' W 123°08'1111.2
2015-Jul-01 13:34N 49°03' W 123°24'1918.9
2015-Jul-01 12:33N 49°13' W 123°49'4 4.2
2015-Jul-01 11:31N 49°10' W 123°53'0 0.0
2015-Jul-01 10:31N 49°10' W 123°53'0 0.0
2015-Jul-01 09:30N 49°10' W 123°53'0 0.0
2015-Jul-01 08:30N 49°10' W 123°53'2 2.1
2015-Jul-01 07:34N 49°12' W 123°53'1817.7
2015-Jul-01 06:34N 49°06' W 123°27'1414.1
2015-Jul-01 05:34N 49°00' W 123°08'10 9.8
2015-Jul-01 04:33N 49°02' W 123°23'2221.7
2015-Jul-01 03:33N 49°13' W 123°51'0 0.3
2015-Jul-01 02:33N 49°13' W 123°51'1919.0
2015-Jul-01 01:33N 49°06' W 123°24'1212.1
2015-Jul-01 00:33N 49°00' W 123°08'1212.2
2015-Jun-30 23:33N 49°04' W 123°26'1919.2
2015-Jun-30 22:33N 49°13' W 123°52'1 1.1
2015-Jun-30 21:33N 49°12' W 123°53'1919.3
2015-Jun-30 20:34N 49°07' W 123°25'1312.6
2015-Jun-30 19:33N 49°00' W 123°08'1111.5
2015-Jun-30 18:33N 49°03' W 123°25'1918.7
2015-Jun-30 17:33N 49°13' W 123°49'3 2.6
2015-Jun-30 16:33N 49°12' W 123°53'1818.1
2015-Jun-30 15:33N 49°07' W 123°27'1413.9
2015-Jun-30 14:33N 49°00' W 123°08'1111.3
2015-Jun-30 13:33N 49°03' W 123°25'1918.8
2015-Jun-30 12:33N 49°13' W 123°50'4 4.0
2015-Jun-30 11:33N 49°10' W 123°53'0 0.0
2015-Jun-30 10:21N 49°10' W 123°53'0 0.0
2015-Jun-30 09:29N 49°10' W 123°53'0 0.0
2015-Jun-30 08:23N 49°10' W 123°53'0 0.1
2015-Jun-30 07:33N 49°10' W 123°53'1716.6
2015-Jun-30 06:33N 49°07' W 123°29'1515.0
2015-Jun-30 05:33N 49°00' W 123°08'1110.8
2015-Jun-30 04:33N 49°03' W 123°24'2020.3
2015-Jun-30 03:33N 49°12' W 123°51'1 1.3
2015-Jun-30 02:33N 49°13' W 123°50'2020.1
2015-Jun-30 01:34N 49°05' W 123°22'1010.0
2015-Jun-30 00:33N 49°00' W 123°08'1515.0
2015-Jun-29 23:33N 49°05' W 123°30'1616.2
2015-Jun-29 22:33N 49°10' W 123°53'5 4.7
2015-Jun-29 21:33N 49°13' W 123°48'2019.7
2015-Jun-29 20:33N 49°04' W 123°22'10 9.8
2015-Jun-29 19:33N 49°00' W 123°08'1313.4
2015-Jun-29 18:33N 49°05' W 123°27'1818.4
2015-Jun-29 17:33N 49°12' W 123°53'3 2.7
2015-Jun-29 16:33N 49°13' W 123°50'2019.9
2015-Jun-29 15:33N 49°05' W 123°23'1110.5
2015-Jun-29 14:33N 49°00' W 123°08'1110.8
2015-Jun-29 13:34N 49°03' W 123°24'1919.4
2015-Jun-29 12:33N 49°13' W 123°49'3 0.7
2015-Jun-29 07:32N 49°11' W 123°53'1818.2
2015-Jun-29 06:33N 49°07' W 123°27'1413.9
2015-Jun-29 05:34N 49°00' W 123°08'1413.9
2015-Jun-29 04:34N 49°05' W 123°28'15 7.3
2015-Jun-29 02:33N 49°13' W 123°47'1919.1
2015-Jun-29 01:33N 49°04' W 123°21'9 9.2
2015-Jun-29 00:33N 49°00' W 123°08'1414.2
2015-Jun-28 23:33N 49°05' W 123°28'17 8.4
2015-Jun-28 21:33N 49°13' W 123°51'2019.7
2015-Jun-28 20:33N 49°05' W 123°23'1111.3
2015-Jun-28 19:33N 49°00' W 123°08'1211.9
2015-Jun-28 18:34N 49°04' W 123°25'1918.6
2015-Jun-28 17:33N 49°13' W 123°50'1 1.0
2015-Jun-28 16:33N 49°13' W 123°52'1818.4
2015-Jun-28 15:33N 49°06' W 123°26'1312.9
2015-Jun-28 14:34N 49°00' W 123°08'1212.3
2015-Jun-28 13:33N 49°04' W 123°26'1818.1
2015-Jun-28 12:33N 49°13' W 123°50'3 0.7
2015-Jun-28 07:32N 49°10' W 123°53'1616.6
2015-Jun-28 06:33N 49°07' W 123°29'1515.3
2015-Jun-28 05:33N 49°00' W 123°08'1110.7
2015-Jun-28 04:34N 49°03' W 123°24'1918.6
2015-Jun-28 03:33N 49°13' W 123°48'3 3.4
2015-Jun-28 02:33N 49°12' W 123°53'1818.1
2015-Jun-28 01:33N 49°06' W 123°27'1413.7
2015-Jun-28 00:33N 49°00' W 123°08'1211.5
2015-Jun-27 23:33N 49°03' W 123°25'2020.2
2015-Jun-27 22:33N 49°12' W 123°53'3 3.4
2015-Jun-27 21:33N 49°13' W 123°48'1919.5
2015-Jun-27 20:33N 49°04' W 123°21'10 9.8
2015-Jun-27 19:34N 49°00' W 123°08'1211.9
2015-Jun-27 18:33N 49°04' W 123°25'1918.5
2015-Jun-27 17:33N 49°13' W 123°50'1 0.7
2015-Jun-27 16:33N 49°13' W 123°51'1918.9
2015-Jun-27 15:34N 49°05' W 123°25'1212.0
2015-Jun-27 14:33N 49°00' W 123°08'1211.6
2015-Jun-27 13:33N 49°03' W 123°25'1818.4
2015-Jun-27 12:33N 49°13' W 123°49'4 4.1
2015-Jun-27 11:31N 49°10' W 123°53'0 0.0
2015-Jun-27 10:33N 49°10' W 123°53'0 0.0
2015-Jun-27 09:29N 49°10' W 123°53'0 0.0
2015-Jun-27 08:29N 49°10' W 123°53'2 2.5
2015-Jun-27 07:33N 49°12' W 123°53'1919.2
2015-Jun-27 06:33N 49°06' W 123°25'1312.6
2015-Jun-27 05:34N 49°00' W 123°08'1514.5
2015-Jun-27 04:33N 49°06' W 123°29'1716.8
2015-Jun-27 03:33N 49°10' W 123°53'6 5.5
2015-Jun-27 02:33N 49°13' W 123°46'2020.0
2015-Jun-27 01:33N 49°03' W 123°19'8 7.9
2015-Jun-27 00:33N 49°00' W 123°08'1616.4
2015-Jun-26 23:33N 49°07' W 123°31'1515.0
2015-Jun-26 22:33N 49°10' W 123°53'6 5.8
2015-Jun-26 21:33N 49°13' W 123°46'1918.8
2015-Jun-26 20:33N 49°04' W 123°21'9 9.1
2015-Jun-26 19:33N 49°00' W 123°08'1312.8
2015-Jun-26 18:34N 49°04' W 123°26'1818.2
2015-Jun-26 17:34N 49°12' W 123°51'0 0.2
2015-Jun-26 16:33N 49°13' W 123°52'1818.2
2015-Jun-26 15:34N 49°06' W 123°26'1312.9
2015-Jun-26 14:33N 49°00' W 123°08'1211.6
2015-Jun-26 13:33N 49°03' W 123°25'1918.7
2015-Jun-26 12:33N 49°13' W 123°50'4 3.7
2015-Jun-26 11:27N 49°10' W 123°53'0 0.0
2015-Jun-26 10:33N 49°10' W 123°53'0 0.0
2015-Jun-26 09:33N 49°10' W 123°53'0 0.0
2015-Jun-26 08:32N 49°10' W 123°53'6 6.4
2015-Jun-26 07:33N 49°12' W 123°45'2019.9
2015-Jun-26 06:34N 49°03' W 123°18'7 7.1
2015-Jun-26 05:34N 49°00' W 123°08'1616.1
2015-Jun-26 04:33N 49°07' W 123°31'1515.2
2015-Jun-26 03:33N 49°10' W 123°53'7 6.9
2015-Jun-26 02:33N 49°12' W 123°44'2020.4
2015-Jun-26 01:33N 49°02' W 123°17'6 5.6
2015-Jun-26 00:34N 49°00' W 123°09'1919.3
2015-Jun-25 23:33N 49°09' W 123°36'1211.8
2015-Jun-25 22:33N 49°10' W 123°53'2 2.4
2015-Jun-25 21:34N 49°12' W 123°53'1918.8
2015-Jun-25 20:33N 49°06' W 123°26'1313.0
2015-Jun-25 19:33N 49°00' W 123°08'1211.7
2015-Jun-25 18:33N 49°04' W 123°25'1918.7
2015-Jun-25 17:34N 49°13' W 123°50'3 3.0
2015-Jun-25 16:33N 49°12' W 123°53'1918.8
2015-Jun-25 15:33N 49°06' W 123°26'1312.9
2015-Jun-25 14:34N 49°00' W 123°08'1111.3
2015-Jun-25 13:33N 49°03' W 123°25'1818.5
2015-Jun-25 12:33N 49°13' W 123°49'4 4.5
2015-Jun-25 11:33N 49°10' W 123°53'0 0.0
2015-Jun-25 10:33N 49°10' W 123°53'0 0.0
2015-Jun-25 09:33N 49°10' W 123°53'0 0.0
2015-Jun-25 08:33N 49°10' W 123°53'2 1.5
2015-Jun-25 07:33N 49°11' W 123°53'1918.7
2015-Jun-25 06:33N 49°06' W 123°26'1313.1
2015-Jun-25 05:33N 49°00' W 123°08'1111.3
2015-Jun-25 04:33N 49°04' W 123°24'1919.5
2015-Jun-25 03:33N 49°13' W 123°51'1 1.2
2015-Jun-25 02:33N 49°12' W 123°53'2019.6
2015-Jun-25 01:33N 49°06' W 123°25'1212.2
2015-Jun-25 00:33N 49°00' W 123°08'1211.8
2015-Jun-24 23:34N 49°04' W 123°25'1919.0
2015-Jun-24 22:33N 49°13' W 123°51'2 1.9
2015-Jun-24 21:33N 49°12' W 123°53'1817.9
2015-Jun-24 20:33N 49°06' W 123°27'1413.9
2015-Jun-24 19:33N 49°00' W 123°08'1110.8
2015-Jun-24 18:34N 49°03' W 123°24'1919.3
2015-Jun-24 17:33N 49°13' W 123°49'3 2.9
2015-Jun-24 16:34N 49°12' W 123°53'1818.4
2015-Jun-24 15:34N 49°06' W 123°26'1413.5
2015-Jun-24 14:33N 49°00' W 123°08'1211.9
2015-Jun-24 13:33N 49°03' W 123°25'1817.9
2015-Jun-24 12:33N 49°13' W 123°49'4 4.2
2015-Jun-24 11:29N 49°10' W 123°53'0 0.0
2015-Jun-24 10:33N 49°10' W 123°53'0 0.0
2015-Jun-24 09:33N 49°10' W 123°53'0 0.0
2015-Jun-24 08:33N 49°10' W 123°53'0 0.3
2015-Jun-24 07:33N 49°10' W 123°53'1716.8
2015-Jun-24 06:33N 49°07' W 123°28'1514.8
2015-Jun-24 05:33N 49°00' W 123°08'1312.9
2015-Jun-24 04:34N 49°04' W 123°27'1620.2
2015-Jun-24 03:47N 49°12' W 123°47'418.5
2015-Jun-24 03:34N 49°12' W 123°53'0 0.4
2015-Jun-24 02:34N 49°12' W 123°53'818.5
2015-Jun-24 02:07N 49°12' W 123°41'1119.2
2015-Jun-24 01:33N 49°06' W 123°26'126.7
2015-Jun-24 01:31N 49°06' W 123°25'1212.9
2015-Jun-24 00:33N 49°00' W 123°08'0 0.0
2015-Jun-24 00:30N 49°00' W 123°08'1112.1
2015-Jun-23 23:33N 49°03' W 123°25'1919.1
2015-Jun-23 22:33N 49°13' W 123°50'2 1.8
2015-Jun-23 21:34N 49°12' W 123°53'1818.5
2015-Jun-23 20:33N 49°06' W 123°26'1313.2
2015-Jun-23 19:34N 49°00' W 123°08'3 6.7
2015-Jun-23 19:06N 49°00' W 123°13'  

Dump ship's entire track history